sensor_id;sensor_type;location;lat;lon;timestamp;P1;durP1;ratioP1;P2;durP2;ratioP2
4182;SDS011;2105;52.300;9.182;2023-06-26T00:02:14;20.37;;;18.73;;
4182;SDS011;2105;52.300;9.182;2023-06-26T00:04:41;19.80;;;18.10;;
4182;SDS011;2105;52.300;9.182;2023-06-26T00:07:09;19.40;;;17.80;;
4182;SDS011;2105;52.300;9.182;2023-06-26T00:09:35;19.63;;;18.13;;
4182;SDS011;2105;52.300;9.182;2023-06-26T00:12:04;20.70;;;19.00;;
4182;SDS011;2105;52.300;9.182;2023-06-26T00:14:31;20.37;;;18.67;;
4182;SDS011;2105;52.300;9.182;2023-06-26T00:16:58;19.63;;;18.13;;
4182;SDS011;2105;52.300;9.182;2023-06-26T00:19:24;19.93;;;18.43;;
4182;SDS011;2105;52.300;9.182;2023-06-26T00:21:51;19.27;;;17.70;;
4182;SDS011;2105;52.300;9.182;2023-06-26T00:24:18;19.17;;;17.77;;
4182;SDS011;2105;52.300;9.182;2023-06-26T00:26:46;20.90;;;18.47;;
4182;SDS011;2105;52.300;9.182;2023-06-26T00:29:14;19.50;;;18.00;;
4182;SDS011;2105;52.300;9.182;2023-06-26T00:31:41;20.03;;;18.23;;
4182;SDS011;2105;52.300;9.182;2023-06-26T00:34:08;20.03;;;18.33;;
4182;SDS011;2105;52.300;9.182;2023-06-26T00:36:34;25.37;;;19.07;;
4182;SDS011;2105;52.300;9.182;2023-06-26T00:39:01;20.07;;;18.40;;
4182;SDS011;2105;52.300;9.182;2023-06-26T00:41:28;20.30;;;18.60;;
4182;SDS011;2105;52.300;9.182;2023-06-26T00:43:55;19.63;;;18.23;;
4182;SDS011;2105;52.300;9.182;2023-06-26T00:46:23;19.27;;;17.77;;
4182;SDS011;2105;52.300;9.182;2023-06-26T00:48:50;19.30;;;17.53;;
4182;SDS011;2105;52.300;9.182;2023-06-26T00:51:17;19.67;;;18.10;;
4182;SDS011;2105;52.300;9.182;2023-06-26T00:53:45;19.53;;;17.93;;
4182;SDS011;2105;52.300;9.182;2023-06-26T00:56:11;19.83;;;18.30;;
4182;SDS011;2105;52.300;9.182;2023-06-26T00:58:38;20.13;;;18.43;;
4182;SDS011;2105;52.300;9.182;2023-06-26T01:01:05;20.43;;;18.73;;
4182;SDS011;2105;52.300;9.182;2023-06-26T01:03:35;19.90;;;18.30;;
4182;SDS011;2105;52.300;9.182;2023-06-26T01:06:04;19.07;;;17.67;;
4182;SDS011;2105;52.300;9.182;2023-06-26T01:08:31;19.60;;;18.20;;
4182;SDS011;2105;52.300;9.182;2023-06-26T01:10:58;18.97;;;17.57;;
4182;SDS011;2105;52.300;9.182;2023-06-26T01:13:25;20.00;;;18.40;;
4182;SDS011;2105;52.300;9.182;2023-06-26T01:15:54;19.80;;;18.10;;
4182;SDS011;2105;52.300;9.182;2023-06-26T01:18:21;19.33;;;17.83;;
4182;SDS011;2105;52.300;9.182;2023-06-26T01:20:50;19.30;;;17.90;;
4182;SDS011;2105;52.300;9.182;2023-06-26T01:23:18;18.90;;;17.40;;
4182;SDS011;2105;52.300;9.182;2023-06-26T01:25:52;19.90;;;18.20;;
4182;SDS011;2105;52.300;9.182;2023-06-26T01:28:30;19.93;;;18.13;;
4182;SDS011;2105;52.300;9.182;2023-06-26T01:30:59;19.50;;;18.00;;
4182;SDS011;2105;52.300;9.182;2023-06-26T01:33:26;19.87;;;18.27;;
4182;SDS011;2105;52.300;9.182;2023-06-26T01:35:53;19.73;;;18.13;;
4182;SDS011;2105;52.300;9.182;2023-06-26T01:38:21;19.67;;;18.20;;
4182;SDS011;2105;52.300;9.182;2023-06-26T01:40:49;18.87;;;17.30;;
4182;SDS011;2105;52.300;9.182;2023-06-26T01:43:18;19.90;;;18.20;;
4182;SDS011;2105;52.300;9.182;2023-06-26T01:45:55;18.77;;;17.40;;
4182;SDS011;2105;52.300;9.182;2023-06-26T01:48:27;20.07;;;18.23;;
4182;SDS011;2105;52.300;9.182;2023-06-26T01:50:59;20.10;;;18.60;;
4182;SDS011;2105;52.300;9.182;2023-06-26T01:53:27;19.27;;;17.67;;
4182;SDS011;2105;52.300;9.182;2023-06-26T01:56:04;19.40;;;17.80;;
4182;SDS011;2105;52.300;9.182;2023-06-26T01:58:35;19.80;;;18.30;;
4182;SDS011;2105;52.300;9.182;2023-06-26T02:01:05;19.70;;;18.10;;
4182;SDS011;2105;52.300;9.182;2023-06-26T02:03:31;20.27;;;18.67;;
4182;SDS011;2105;52.300;9.182;2023-06-26T02:05:58;19.40;;;18.00;;
4182;SDS011;2105;52.300;9.182;2023-06-26T02:08:25;20.13;;;18.43;;
4182;SDS011;2105;52.300;9.182;2023-06-26T02:10:51;20.03;;;18.43;;
4182;SDS011;2105;52.300;9.182;2023-06-26T02:13:18;19.83;;;18.13;;
4182;SDS011;2105;52.300;9.182;2023-06-26T02:15:45;19.70;;;18.10;;
4182;SDS011;2105;52.300;9.182;2023-06-26T02:18:13;20.73;;;19.13;;
4182;SDS011;2105;52.300;9.182;2023-06-26T02:20:39;20.50;;;18.70;;
4182;SDS011;2105;52.300;9.182;2023-06-26T02:23:06;20.63;;;18.73;;
4182;SDS011;2105;52.300;9.182;2023-06-26T02:25:33;19.80;;;18.20;;
4182;SDS011;2105;52.300;9.182;2023-06-26T02:27:59;20.63;;;18.90;;
4182;SDS011;2105;52.300;9.182;2023-06-26T02:30:26;20.73;;;18.70;;
4182;SDS011;2105;52.300;9.182;2023-06-26T02:32:53;21.00;;;19.20;;
4182;SDS011;2105;52.300;9.182;2023-06-26T02:35:21;19.70;;;18.10;;
4182;SDS011;2105;52.300;9.182;2023-06-26T02:37:48;20.40;;;18.63;;
4182;SDS011;2105;52.300;9.182;2023-06-26T02:40:14;19.83;;;18.17;;
4182;SDS011;2105;52.300;9.182;2023-06-26T02:42:41;19.80;;;18.30;;
4182;SDS011;2105;52.300;9.182;2023-06-26T02:45:08;21.03;;;19.10;;
4182;SDS011;2105;52.300;9.182;2023-06-26T02:47:35;19.93;;;18.43;;
4182;SDS011;2105;52.300;9.182;2023-06-26T02:50:04;19.60;;;18.10;;
4182;SDS011;2105;52.300;9.182;2023-06-26T02:52:33;19.70;;;18.17;;
4182;SDS011;2105;52.300;9.182;2023-06-26T02:54:59;19.53;;;17.93;;
4182;SDS011;2105;52.300;9.182;2023-06-26T02:57:26;19.50;;;18.10;;
4182;SDS011;2105;52.300;9.182;2023-06-26T02:59:53;19.90;;;18.33;;
4182;SDS011;2105;52.300;9.182;2023-06-26T03:02:19;20.00;;;18.40;;
4182;SDS011;2105;52.300;9.182;2023-06-26T03:04:46;20.17;;;18.50;;
4182;SDS011;2105;52.300;9.182;2023-06-26T03:07:14;20.00;;;18.40;;
4182;SDS011;2105;52.300;9.182;2023-06-26T03:09:42;20.33;;;18.63;;
4182;SDS011;2105;52.300;9.182;2023-06-26T03:12:09;20.63;;;18.83;;
4182;SDS011;2105;52.300;9.182;2023-06-26T03:14:35;20.10;;;18.60;;
4182;SDS011;2105;52.300;9.182;2023-06-26T03:17:02;20.23;;;18.63;;
4182;SDS011;2105;52.300;9.182;2023-06-26T03:19:31;19.77;;;17.70;;
4182;SDS011;2105;52.300;9.182;2023-06-26T03:21:57;19.17;;;17.77;;
4182;SDS011;2105;52.300;9.182;2023-06-26T03:24:24;19.30;;;17.70;;
4182;SDS011;2105;52.300;9.182;2023-06-26T03:26:52;19.30;;;17.80;;
4182;SDS011;2105;52.300;9.182;2023-06-26T03:29:18;19.70;;;18.20;;
4182;SDS011;2105;52.300;9.182;2023-06-26T03:31:45;20.07;;;18.30;;
4182;SDS011;2105;52.300;9.182;2023-06-26T03:34:12;20.20;;;18.37;;
4182;SDS011;2105;52.300;9.182;2023-06-26T03:36:39;19.27;;;17.57;;
4182;SDS011;2105;52.300;9.182;2023-06-26T03:39:06;18.90;;;17.33;;
4182;SDS011;2105;52.300;9.182;2023-06-26T03:41:33;19.63;;;18.03;;
4182;SDS011;2105;52.300;9.182;2023-06-26T03:44:01;19.00;;;17.60;;
4182;SDS011;2105;52.300;9.182;2023-06-26T03:46:28;20.07;;;18.13;;
4182;SDS011;2105;52.300;9.182;2023-06-26T03:48:55;19.30;;;17.80;;
4182;SDS011;2105;52.300;9.182;2023-06-26T03:51:22;18.77;;;17.37;;
4182;SDS011;2105;52.300;9.182;2023-06-26T03:53:49;19.43;;;17.93;;
4182;SDS011;2105;52.300;9.182;2023-06-26T03:56:15;18.77;;;17.13;;
4182;SDS011;2105;52.300;9.182;2023-06-26T03:58:42;19.00;;;17.60;;
4182;SDS011;2105;52.300;9.182;2023-06-26T04:01:10;19.70;;;18.10;;
4182;SDS011;2105;52.300;9.182;2023-06-26T04:03:37;19.50;;;17.73;;
4182;SDS011;2105;52.300;9.182;2023-06-26T04:06:03;19.40;;;17.80;;
4182;SDS011;2105;52.300;9.182;2023-06-26T04:08:31;19.13;;;17.73;;
4182;SDS011;2105;52.300;9.182;2023-06-26T04:10:57;19.50;;;17.90;;
4182;SDS011;2105;52.300;9.182;2023-06-26T04:13:24;18.87;;;17.37;;
4182;SDS011;2105;52.300;9.182;2023-06-26T04:15:51;19.80;;;17.80;;
4182;SDS011;2105;52.300;9.182;2023-06-26T04:18:19;20.20;;;18.30;;
4182;SDS011;2105;52.300;9.182;2023-06-26T04:23:31;19.57;;;18.00;;
4182;SDS011;2105;52.300;9.182;2023-06-26T04:25:58;19.77;;;18.17;;
4182;SDS011;2105;52.300;9.182;2023-06-26T04:28:25;20.13;;;18.43;;
4182;SDS011;2105;52.300;9.182;2023-06-26T04:30:51;20.03;;;18.37;;
4182;SDS011;2105;52.300;9.182;2023-06-26T04:33:20;20.60;;;18.90;;
4182;SDS011;2105;52.300;9.182;2023-06-26T04:35:46;20.33;;;18.67;;
4182;SDS011;2105;52.300;9.182;2023-06-26T04:38:14;21.17;;;19.47;;
4182;SDS011;2105;52.300;9.182;2023-06-26T04:40:41;20.97;;;19.20;;
4182;SDS011;2105;52.300;9.182;2023-06-26T04:43:08;20.70;;;19.00;;
4182;SDS011;2105;52.300;9.182;2023-06-26T04:45:35;21.20;;;19.50;;
4182;SDS011;2105;52.300;9.182;2023-06-26T04:48:01;20.33;;;18.73;;
4182;SDS011;2105;52.300;9.182;2023-06-26T04:50:30;21.53;;;19.60;;
4182;SDS011;2105;52.300;9.182;2023-06-26T04:52:58;20.77;;;19.20;;
4182;SDS011;2105;52.300;9.182;2023-06-26T04:55:25;21.20;;;19.50;;
4182;SDS011;2105;52.300;9.182;2023-06-26T04:57:53;21.50;;;19.60;;
4182;SDS011;2105;52.300;9.182;2023-06-26T05:00:20;21.17;;;19.10;;
4182;SDS011;2105;52.300;9.182;2023-06-26T05:02:47;21.60;;;19.63;;
4182;SDS011;2105;52.300;9.182;2023-06-26T05:05:14;22.07;;;19.83;;
4182;SDS011;2105;52.300;9.182;2023-06-26T05:07:42;22.27;;;20.27;;
4182;SDS011;2105;52.300;9.182;2023-06-26T05:10:09;22.00;;;20.20;;
4182;SDS011;2105;52.300;9.182;2023-06-26T05:12:36;22.30;;;20.20;;
4182;SDS011;2105;52.300;9.182;2023-06-26T05:15:03;22.57;;;20.60;;
4182;SDS011;2105;52.300;9.182;2023-06-26T05:17:30;22.43;;;20.60;;
4182;SDS011;2105;52.300;9.182;2023-06-26T05:19:57;21.90;;;20.10;;
4182;SDS011;2105;52.300;9.182;2023-06-26T05:22:24;22.23;;;20.23;;
4182;SDS011;2105;52.300;9.182;2023-06-26T05:24:53;21.57;;;19.67;;
4182;SDS011;2105;52.300;9.182;2023-06-26T05:27:24;22.07;;;20.27;;
4182;SDS011;2105;52.300;9.182;2023-06-26T05:29:51;22.07;;;20.27;;
4182;SDS011;2105;52.300;9.182;2023-06-26T05:32:18;21.87;;;20.17;;
4182;SDS011;2105;52.300;9.182;2023-06-26T05:34:46;22.30;;;20.40;;
4182;SDS011;2105;52.300;9.182;2023-06-26T05:37:14;22.97;;;21.07;;
4182;SDS011;2105;52.300;9.182;2023-06-26T05:39:46;22.20;;;20.50;;
4182;SDS011;2105;52.300;9.182;2023-06-26T05:42:15;22.93;;;21.07;;
4182;SDS011;2105;52.300;9.182;2023-06-26T05:44:43;23.20;;;21.10;;
4182;SDS011;2105;52.300;9.182;2023-06-26T05:47:09;23.07;;;21.03;;
4182;SDS011;2105;52.300;9.182;2023-06-26T05:49:36;22.57;;;20.43;;
4182;SDS011;2105;52.300;9.182;2023-06-26T05:52:03;23.00;;;20.93;;
4182;SDS011;2105;52.300;9.182;2023-06-26T05:54:30;23.73;;;21.80;;
4182;SDS011;2105;52.300;9.182;2023-06-26T05:56:58;21.50;;;19.70;;
4182;SDS011;2105;52.300;9.182;2023-06-26T05:59:26;23.17;;;21.07;;
4182;SDS011;2105;52.300;9.182;2023-06-26T06:01:54;23.43;;;21.43;;
4182;SDS011;2105;52.300;9.182;2023-06-26T06:04:21;23.27;;;21.37;;
4182;SDS011;2105;52.300;9.182;2023-06-26T06:06:47;23.70;;;21.60;;
4182;SDS011;2105;52.300;9.182;2023-06-26T06:09:14;22.67;;;20.87;;
4182;SDS011;2105;52.300;9.182;2023-06-26T06:11:41;22.70;;;20.90;;
4182;SDS011;2105;52.300;9.182;2023-06-26T06:14:07;23.63;;;21.70;;
4182;SDS011;2105;52.300;9.182;2023-06-26T06:16:36;24.13;;;21.63;;
4182;SDS011;2105;52.300;9.182;2023-06-26T06:19:03;23.10;;;21.20;;
4182;SDS011;2105;52.300;9.182;2023-06-26T06:21:31;24.20;;;22.00;;
4182;SDS011;2105;52.300;9.182;2023-06-26T06:23:58;24.20;;;22.10;;
4182;SDS011;2105;52.300;9.182;2023-06-26T06:26:26;24.37;;;22.27;;
4182;SDS011;2105;52.300;9.182;2023-06-26T06:28:52;24.23;;;22.23;;
4182;SDS011;2105;52.300;9.182;2023-06-26T06:31:19;24.50;;;22.37;;
4182;SDS011;2105;52.300;9.182;2023-06-26T06:33:47;25.17;;;23.07;;
4182;SDS011;2105;52.300;9.182;2023-06-26T06:36:14;25.20;;;23.00;;
4182;SDS011;2105;52.300;9.182;2023-06-26T06:38:42;23.73;;;21.73;;
4182;SDS011;2105;52.300;9.182;2023-06-26T06:41:09;23.80;;;21.80;;
4182;SDS011;2105;52.300;9.182;2023-06-26T06:43:36;23.87;;;22.00;;
4182;SDS011;2105;52.300;9.182;2023-06-26T06:46:02;24.17;;;21.80;;
4182;SDS011;2105;52.300;9.182;2023-06-26T06:48:30;24.00;;;21.80;;
4182;SDS011;2105;52.300;9.182;2023-06-26T06:50:59;24.07;;;22.17;;
4182;SDS011;2105;52.300;9.182;2023-06-26T06:53:25;24.60;;;22.60;;
4182;SDS011;2105;52.300;9.182;2023-06-26T06:55:52;23.23;;;21.33;;
4182;SDS011;2105;52.300;9.182;2023-06-26T06:58:18;23.97;;;21.97;;
4182;SDS011;2105;52.300;9.182;2023-06-26T07:00:45;24.47;;;22.37;;
4182;SDS011;2105;52.300;9.182;2023-06-26T07:03:12;24.10;;;22.30;;
4182;SDS011;2105;52.300;9.182;2023-06-26T07:05:40;24.13;;;22.03;;
4182;SDS011;2105;52.300;9.182;2023-06-26T07:08:09;24.30;;;22.40;;
4182;SDS011;2105;52.300;9.182;2023-06-26T07:10:35;24.20;;;22.10;;
4182;SDS011;2105;52.300;9.182;2023-06-26T07:13:02;24.50;;;22.60;;
4182;SDS011;2105;52.300;9.182;2023-06-26T07:15:29;23.60;;;21.40;;
4182;SDS011;2105;52.300;9.182;2023-06-26T07:17:55;24.10;;;21.60;;
4182;SDS011;2105;52.300;9.182;2023-06-26T07:20:22;24.63;;;22.00;;
4182;SDS011;2105;52.300;9.182;2023-06-26T07:22:49;25.63;;;21.87;;
4182;SDS011;2105;52.300;9.182;2023-06-26T07:25:18;24.17;;;21.90;;
4182;SDS011;2105;52.300;9.182;2023-06-26T07:27:44;23.30;;;21.40;;
4182;SDS011;2105;52.300;9.182;2023-06-26T07:30:11;22.93;;;21.03;;
4182;SDS011;2105;52.300;9.182;2023-06-26T07:32:38;22.93;;;21.03;;
4182;SDS011;2105;52.300;9.182;2023-06-26T07:35:07;23.07;;;21.27;;
4182;SDS011;2105;52.300;9.182;2023-06-26T07:37:34;23.50;;;21.50;;
4182;SDS011;2105;52.300;9.182;2023-06-26T07:40:00;23.30;;;21.30;;
4182;SDS011;2105;52.300;9.182;2023-06-26T07:42:29;23.97;;;21.80;;
4182;SDS011;2105;52.300;9.182;2023-06-26T07:44:55;30.40;;;22.13;;
4182;SDS011;2105;52.300;9.182;2023-06-26T07:47:22;24.40;;;22.20;;
4182;SDS011;2105;52.300;9.182;2023-06-26T07:49:49;24.17;;;22.00;;
4182;SDS011;2105;52.300;9.182;2023-06-26T07:52:15;25.43;;;22.73;;
4182;SDS011;2105;52.300;9.182;2023-06-26T07:54:42;24.17;;;22.07;;
4182;SDS011;2105;52.300;9.182;2023-06-26T07:57:08;25.40;;;23.10;;
4182;SDS011;2105;52.300;9.182;2023-06-26T07:59:38;24.57;;;22.17;;
4182;SDS011;2105;52.300;9.182;2023-06-26T08:02:05;25.67;;;23.47;;
4182;SDS011;2105;52.300;9.182;2023-06-26T08:04:32;25.03;;;22.63;;
4182;SDS011;2105;52.300;9.182;2023-06-26T08:06:59;24.13;;;22.13;;
4182;SDS011;2105;52.300;9.182;2023-06-26T08:09:26;24.53;;;22.53;;
4182;SDS011;2105;52.300;9.182;2023-06-26T08:11:54;27.03;;;22.50;;
4182;SDS011;2105;52.300;9.182;2023-06-26T08:14:21;26.13;;;23.73;;
4182;SDS011;2105;52.300;9.182;2023-06-26T08:16:50;25.30;;;23.00;;
4182;SDS011;2105;52.300;9.182;2023-06-26T08:19:17;25.17;;;22.97;;
4182;SDS011;2105;52.300;9.182;2023-06-26T08:21:44;27.07;;;24.47;;
4182;SDS011;2105;52.300;9.182;2023-06-26T08:24:12;26.30;;;23.43;;
4182;SDS011;2105;52.300;9.182;2023-06-26T08:26:41;26.87;;;23.53;;
4182;SDS011;2105;52.300;9.182;2023-06-26T08:29:08;27.53;;;24.70;;
4182;SDS011;2105;52.300;9.182;2023-06-26T08:31:34;26.07;;;23.57;;
4182;SDS011;2105;52.300;9.182;2023-06-26T08:34:02;29.57;;;24.17;;
4182;SDS011;2105;52.300;9.182;2023-06-26T08:36:30;26.17;;;23.60;;
4182;SDS011;2105;52.300;9.182;2023-06-26T08:38:57;26.37;;;23.97;;
4182;SDS011;2105;52.300;9.182;2023-06-26T08:41:24;25.63;;;23.33;;
4182;SDS011;2105;52.300;9.182;2023-06-26T08:43:51;27.17;;;24.47;;
4182;SDS011;2105;52.300;9.182;2023-06-26T08:46:18;26.53;;;24.20;;
4182;SDS011;2105;52.300;9.182;2023-06-26T08:48:48;26.67;;;24.00;;
4182;SDS011;2105;52.300;9.182;2023-06-26T08:51:18;32.33;;;24.90;;
4182;SDS011;2105;52.300;9.182;2023-06-26T08:53:50;28.50;;;25.87;;
4182;SDS011;2105;52.300;9.182;2023-06-26T08:56:22;28.30;;;25.60;;
4182;SDS011;2105;52.300;9.182;2023-06-26T08:58:50;27.20;;;24.73;;
4182;SDS011;2105;52.300;9.182;2023-06-26T09:01:17;28.13;;;25.50;;
4182;SDS011;2105;52.300;9.182;2023-06-26T09:03:44;27.33;;;24.50;;
4182;SDS011;2105;52.300;9.182;2023-06-26T09:06:10;28.77;;;25.27;;
4182;SDS011;2105;52.300;9.182;2023-06-26T09:08:38;26.13;;;23.63;;
4182;SDS011;2105;52.300;9.182;2023-06-26T09:11:05;26.47;;;24.00;;
4182;SDS011;2105;52.300;9.182;2023-06-26T09:13:32;28.13;;;25.70;;
4182;SDS011;2105;52.300;9.182;2023-06-26T09:15:59;27.90;;;24.93;;
4182;SDS011;2105;52.300;9.182;2023-06-26T09:18:30;26.47;;;24.10;;
4182;SDS011;2105;52.300;9.182;2023-06-26T09:20:58;27.77;;;25.23;;
4182;SDS011;2105;52.300;9.182;2023-06-26T09:23:26;28.70;;;25.70;;
4182;SDS011;2105;52.300;9.182;2023-06-26T09:25:54;40.33;;;25.27;;
4182;SDS011;2105;52.300;9.182;2023-06-26T09:28:21;27.40;;;23.97;;
4182;SDS011;2105;52.300;9.182;2023-06-26T09:30:48;26.47;;;23.67;;
4182;SDS011;2105;52.300;9.182;2023-06-26T09:33:17;25.33;;;23.07;;
4182;SDS011;2105;52.300;9.182;2023-06-26T09:35:44;25.53;;;23.10;;
4182;SDS011;2105;52.300;9.182;2023-06-26T09:38:12;24.93;;;22.10;;
4182;SDS011;2105;52.300;9.182;2023-06-26T09:40:39;23.13;;;21.03;;
4182;SDS011;2105;52.300;9.182;2023-06-26T09:43:09;23.07;;;20.73;;
4182;SDS011;2105;52.300;9.182;2023-06-26T09:45:39;24.33;;;18.40;;
4182;SDS011;2105;52.300;9.182;2023-06-26T09:48:06;22.57;;;18.03;;
4182;SDS011;2105;52.300;9.182;2023-06-26T09:50:33;20.83;;;18.83;;
4182;SDS011;2105;52.300;9.182;2023-06-26T09:53:07;20.23;;;18.33;;
4182;SDS011;2105;52.300;9.182;2023-06-26T09:55:35;21.63;;;19.30;;
4182;SDS011;2105;52.300;9.182;2023-06-26T09:58:02;20.47;;;18.47;;
4182;SDS011;2105;52.300;9.182;2023-06-26T10:00:31;20.67;;;18.37;;
4182;SDS011;2105;52.300;9.182;2023-06-26T10:02:58;20.97;;;18.77;;
4182;SDS011;2105;52.300;9.182;2023-06-26T10:05:25;20.90;;;19.00;;
4182;SDS011;2105;52.300;9.182;2023-06-26T10:07:52;20.07;;;18.23;;
4182;SDS011;2105;52.300;9.182;2023-06-26T10:10:20;21.40;;;19.50;;
4182;SDS011;2105;52.300;9.182;2023-06-26T10:12:48;20.60;;;18.57;;
4182;SDS011;2105;52.300;9.182;2023-06-26T10:15:17;20.20;;;18.20;;
4182;SDS011;2105;52.300;9.182;2023-06-26T10:17:48;21.30;;;19.30;;
4182;SDS011;2105;52.300;9.182;2023-06-26T10:20:16;19.97;;;18.10;;
4182;SDS011;2105;52.300;9.182;2023-06-26T10:22:44;20.60;;;18.60;;
4182;SDS011;2105;52.300;9.182;2023-06-26T10:25:12;20.30;;;18.47;;
4182;SDS011;2105;52.300;9.182;2023-06-26T10:27:43;20.00;;;18.30;;
4182;SDS011;2105;52.300;9.182;2023-06-26T10:30:14;20.20;;;18.10;;
4182;SDS011;2105;52.300;9.182;2023-06-26T10:32:44;20.63;;;18.50;;
4182;SDS011;2105;52.300;9.182;2023-06-26T10:35:13;18.57;;;17.07;;
4182;SDS011;2105;52.300;9.182;2023-06-26T10:37:40;20.43;;;18.50;;
4182;SDS011;2105;52.300;9.182;2023-06-26T10:40:08;21.73;;;19.63;;
4182;SDS011;2105;52.300;9.182;2023-06-26T10:42:35;19.80;;;17.90;;
4182;SDS011;2105;52.300;9.182;2023-06-26T10:45:10;20.33;;;18.27;;
4182;SDS011;2105;52.300;9.182;2023-06-26T10:47:38;20.50;;;18.70;;
4182;SDS011;2105;52.300;9.182;2023-06-26T10:50:17;20.83;;;18.73;;
4182;SDS011;2105;52.300;9.182;2023-06-26T10:52:45;20.67;;;18.53;;
4182;SDS011;2105;52.300;9.182;2023-06-26T10:55:13;19.83;;;17.70;;
4182;SDS011;2105;52.300;9.182;2023-06-26T10:57:40;20.77;;;18.13;;
4182;SDS011;2105;52.300;9.182;2023-06-26T11:00:14;18.93;;;17.13;;
4182;SDS011;2105;52.300;9.182;2023-06-26T11:02:48;20.23;;;18.00;;
4182;SDS011;2105;52.300;9.182;2023-06-26T11:05:24;19.13;;;17.37;;
4182;SDS011;2105;52.300;9.182;2023-06-26T11:08:05;18.87;;;17.07;;
4182;SDS011;2105;52.300;9.182;2023-06-26T11:10:48;19.27;;;17.17;;
4182;SDS011;2105;52.300;9.182;2023-06-26T11:13:16;20.53;;;17.70;;
4182;SDS011;2105;52.300;9.182;2023-06-26T11:15:44;24.70;;;17.77;;
4182;SDS011;2105;52.300;9.182;2023-06-26T11:18:11;20.00;;;17.53;;
4182;SDS011;2105;52.300;9.182;2023-06-26T11:20:40;19.50;;;17.60;;
4182;SDS011;2105;52.300;9.182;2023-06-26T11:23:07;18.50;;;16.90;;
4182;SDS011;2105;52.300;9.182;2023-06-26T11:25:35;19.10;;;17.30;;
4182;SDS011;2105;52.300;9.182;2023-06-26T11:28:02;19.60;;;17.90;;
4182;SDS011;2105;52.300;9.182;2023-06-26T11:30:30;19.20;;;17.43;;
4182;SDS011;2105;52.300;9.182;2023-06-26T11:33:03;19.40;;;17.47;;
4182;SDS011;2105;52.300;9.182;2023-06-26T11:35:30;18.93;;;17.10;;
4182;SDS011;2105;52.300;9.182;2023-06-26T11:37:59;20.73;;;17.37;;
4182;SDS011;2105;52.300;9.182;2023-06-26T11:40:29;19.90;;;17.10;;
4182;SDS011;2105;52.300;9.182;2023-06-26T11:42:57;18.73;;;17.10;;
4182;SDS011;2105;52.300;9.182;2023-06-26T11:45:24;18.10;;;16.60;;
4182;SDS011;2105;52.300;9.182;2023-06-26T11:47:51;18.13;;;16.43;;
4182;SDS011;2105;52.300;9.182;2023-06-26T11:50:18;17.83;;;16.33;;
4182;SDS011;2105;52.300;9.182;2023-06-26T11:52:44;17.63;;;15.83;;
4182;SDS011;2105;52.300;9.182;2023-06-26T11:55:13;17.77;;;16.17;;
4182;SDS011;2105;52.300;9.182;2023-06-26T11:57:39;17.97;;;16.23;;
4182;SDS011;2105;52.300;9.182;2023-06-26T12:00:12;19.33;;;17.07;;
4182;SDS011;2105;52.300;9.182;2023-06-26T12:02:41;19.20;;;17.17;;
4182;SDS011;2105;52.300;9.182;2023-06-26T12:05:08;20.27;;;18.47;;
4182;SDS011;2105;52.300;9.182;2023-06-26T12:07:35;20.30;;;18.60;;
4182;SDS011;2105;52.300;9.182;2023-06-26T12:10:03;20.63;;;18.93;;
4182;SDS011;2105;52.300;9.182;2023-06-26T12:12:32;20.27;;;18.57;;
4182;SDS011;2105;52.300;9.182;2023-06-26T12:15:00;20.27;;;18.57;;
4182;SDS011;2105;52.300;9.182;2023-06-26T12:17:27;19.53;;;17.83;;
4182;SDS011;2105;52.300;9.182;2023-06-26T12:19:54;20.30;;;18.47;;
4182;SDS011;2105;52.300;9.182;2023-06-26T12:22:20;20.50;;;18.70;;
4182;SDS011;2105;52.300;9.182;2023-06-26T12:24:47;20.10;;;18.20;;
4182;SDS011;2105;52.300;9.182;2023-06-26T12:27:14;21.17;;;18.77;;
4182;SDS011;2105;52.300;9.182;2023-06-26T12:29:50;20.40;;;18.70;;
4182;SDS011;2105;52.300;9.182;2023-06-26T12:32:18;20.00;;;18.30;;
4182;SDS011;2105;52.300;9.182;2023-06-26T12:34:47;20.40;;;18.50;;
4182;SDS011;2105;52.300;9.182;2023-06-26T12:37:15;22.73;;;18.80;;
4182;SDS011;2105;52.300;9.182;2023-06-26T12:39:46;19.77;;;18.03;;
4182;SDS011;2105;52.300;9.182;2023-06-26T12:42:13;21.17;;;18.90;;
4182;SDS011;2105;52.300;9.182;2023-06-26T12:44:41;19.87;;;18.23;;
4182;SDS011;2105;52.300;9.182;2023-06-26T12:47:09;20.10;;;18.30;;
4182;SDS011;2105;52.300;9.182;2023-06-26T12:49:38;20.37;;;18.33;;
4182;SDS011;2105;52.300;9.182;2023-06-26T12:52:07;20.20;;;18.40;;
4182;SDS011;2105;52.300;9.182;2023-06-26T12:54:35;20.67;;;18.77;;
4182;SDS011;2105;52.300;9.182;2023-06-26T12:57:05;20.53;;;18.60;;
4182;SDS011;2105;52.300;9.182;2023-06-26T12:59:32;20.40;;;18.60;;
4182;SDS011;2105;52.300;9.182;2023-06-26T13:02:00;20.67;;;18.87;;
4182;SDS011;2105;52.300;9.182;2023-06-26T13:04:28;20.30;;;18.60;;
4182;SDS011;2105;52.300;9.182;2023-06-26T13:06:55;20.37;;;18.67;;
4182;SDS011;2105;52.300;9.182;2023-06-26T13:09:22;20.67;;;18.90;;
4182;SDS011;2105;52.300;9.182;2023-06-26T13:11:50;20.83;;;18.70;;
4182;SDS011;2105;52.300;9.182;2023-06-26T13:14:17;19.90;;;18.30;;
4182;SDS011;2105;52.300;9.182;2023-06-26T13:16:43;19.80;;;18.10;;
4182;SDS011;2105;52.300;9.182;2023-06-26T13:19:10;19.60;;;17.87;;
4182;SDS011;2105;52.300;9.182;2023-06-26T13:21:38;22.83;;;18.50;;
4182;SDS011;2105;52.300;9.182;2023-06-26T13:24:05;20.53;;;18.77;;
4182;SDS011;2105;52.300;9.182;2023-06-26T13:26:32;19.70;;;18.10;;
4182;SDS011;2105;52.300;9.182;2023-06-26T13:28:59;19.90;;;18.30;;
4182;SDS011;2105;52.300;9.182;2023-06-26T13:31:26;21.40;;;19.33;;
4182;SDS011;2105;52.300;9.182;2023-06-26T13:33:52;20.27;;;18.40;;
4182;SDS011;2105;52.300;9.182;2023-06-26T13:36:19;20.10;;;18.40;;
4182;SDS011;2105;52.300;9.182;2023-06-26T13:38:48;20.63;;;18.70;;
4182;SDS011;2105;52.300;9.182;2023-06-26T13:41:20;20.60;;;18.60;;
4182;SDS011;2105;52.300;9.182;2023-06-26T13:43:47;20.13;;;18.53;;
4182;SDS011;2105;52.300;9.182;2023-06-26T13:46:15;20.67;;;19.07;;
4182;SDS011;2105;52.300;9.182;2023-06-26T13:48:42;20.47;;;18.53;;
4182;SDS011;2105;52.300;9.182;2023-06-26T13:51:08;20.53;;;18.53;;
4182;SDS011;2105;52.300;9.182;2023-06-26T13:53:35;19.37;;;17.87;;
4182;SDS011;2105;52.300;9.182;2023-06-26T13:56:03;19.80;;;18.20;;
4182;SDS011;2105;52.300;9.182;2023-06-26T13:58:30;19.87;;;18.17;;
4182;SDS011;2105;52.300;9.182;2023-06-26T14:00:58;19.70;;;18.03;;
4182;SDS011;2105;52.300;9.182;2023-06-26T14:03:26;20.90;;;18.57;;
4182;SDS011;2105;52.300;9.182;2023-06-26T14:05:53;19.23;;;17.77;;
4182;SDS011;2105;52.300;9.182;2023-06-26T14:08:20;19.67;;;17.97;;
4182;SDS011;2105;52.300;9.182;2023-06-26T14:10:46;20.30;;;18.60;;
4182;SDS011;2105;52.300;9.182;2023-06-26T14:13:14;19.40;;;17.90;;
4182;SDS011;2105;52.300;9.182;2023-06-26T14:15:41;20.93;;;18.90;;
4182;SDS011;2105;52.300;9.182;2023-06-26T14:18:09;20.27;;;18.27;;
4182;SDS011;2105;52.300;9.182;2023-06-26T14:20:35;20.20;;;18.10;;
4182;SDS011;2105;52.300;9.182;2023-06-26T14:23:02;20.03;;;18.00;;
4182;SDS011;2105;52.300;9.182;2023-06-26T14:25:29;20.20;;;18.30;;
4182;SDS011;2105;52.300;9.182;2023-06-26T14:27:56;19.53;;;18.03;;
4182;SDS011;2105;52.300;9.182;2023-06-26T14:30:24;19.90;;;18.03;;
4182;SDS011;2105;52.300;9.182;2023-06-26T14:32:51;19.77;;;18.07;;
4182;SDS011;2105;52.300;9.182;2023-06-26T14:35:18;22.53;;;17.97;;
4182;SDS011;2105;52.300;9.182;2023-06-26T14:37:45;19.67;;;18.10;;
4182;SDS011;2105;52.300;9.182;2023-06-26T14:40:12;19.10;;;17.60;;
4182;SDS011;2105;52.300;9.182;2023-06-26T14:42:39;19.30;;;17.50;;
4182;SDS011;2105;52.300;9.182;2023-06-26T14:45:08;19.47;;;17.80;;
4182;SDS011;2105;52.300;9.182;2023-06-26T14:47:37;19.37;;;17.43;;
4182;SDS011;2105;52.300;9.182;2023-06-26T14:50:04;19.37;;;17.60;;
4182;SDS011;2105;52.300;9.182;2023-06-26T14:52:32;19.27;;;17.67;;
4182;SDS011;2105;52.300;9.182;2023-06-26T14:54:59;19.77;;;17.87;;